Time;durP1;ratioP1;P1;durP2;ratioP2;P2;SDS_P1;SDS_P2;PMS_P1;PMS_P2;Temp;Humidity;BMP_temperature;BMP_pressure;BME280_temperature;BME280_humidity;BME280_pressure;Samples;Min_cycle;Max_cycle;Signal;HPM_P1;HPM_P2
2022/01/03 00:00:10;;;;;;;11.75;3.15;;;10.10;99.90;;;;;;4948071;28;20034;-85
2022/01/03 00:02:36;;;;;;;4.20;2.08;;;10.10;99.90;;;;;;4953038;28;20034;-85
2022/01/03 00:05:02;;;;;;;7.32;1.90;;;10.10;99.90;;;;;;4968726;28;20039;-85
2022/01/03 00:07:27;;;;;;;9.77;2.38;;;10.10;99.90;;;;;;4965889;28;20034;-85
2022/01/03 00:09:53;;;;;;;4.43;2.00;;;10.10;99.90;;;;;;4951769;28;20059;-85
2022/01/03 00:12:21;;;;;;;7.53;1.73;;;10.00;99.90;;;;;;4964329;28;20041;-85
2022/01/03 00:14:48;;;;;;;5.57;2.00;;;10.00;99.90;;;;;;4952142;28;20084;-85
2022/01/03 00:17:14;;;;;;;5.22;1.95;;;10.10;99.90;;;;;;4948865;28;20039;-85
2022/01/03 00:19:40;;;;;;;7.05;2.50;;;10.00;99.90;;;;;;4949373;28;20058;-85
2022/01/03 00:22:06;;;;;;;4.90;1.45;;;9.90;99.90;;;;;;4949387;28;20050;-85
2022/01/03 00:24:33;;;;;;;11.70;1.38;;;9.90;99.90;;;;;;4966489;28;20399;-85
2022/01/03 00:27:01;;;;;;;7.05;1.45;;;9.90;99.90;;;;;;4948759;28;20379;-85
2022/01/03 00:29:29;;;;;;;10.38;2.10;;;9.90;99.90;;;;;;4962085;28;20039;-85
2022/01/03 00:31:55;;;;;;;8.98;1.50;;;9.80;99.90;;;;;;4961736;28;20057;-85
2022/01/03 00:34:20;;;;;;;3.47;1.92;;;9.80;99.90;;;;;;4945780;28;20522;-85
2022/01/03 00:36:46;;;;;;;14.35;3.13;;;9.70;99.90;;;;;;4952845;28;20058;-84
2022/01/03 00:39:13;;;;;;;6.82;2.05;;;9.70;99.90;;;;;;4953235;28;20066;-85
2022/01/03 00:41:41;;;;;;;19.15;2.20;;;9.60;99.90;;;;;;4961447;28;20034;-85
2022/01/03 00:44:06;;;;;;;18.15;2.03;;;9.60;99.90;;;;;;4934903;28;20043;-85
2022/01/03 00:46:32;;;;;;;7.28;2.08;;;9.60;99.90;;;;;;4962826;28;20121;-85
2022/01/03 00:48:59;;;;;;;7.40;1.20;;;9.60;99.90;;;;;;4946277;28;20041;-85
2022/01/03 00:51:25;;;;;;;9.60;2.17;;;9.60;99.90;;;;;;4946533;28;20045;-85
2022/01/03 00:53:51;;;;;;;13.43;2.03;;;9.60;99.90;;;;;;4944363;28;20762;-85
2022/01/03 00:56:43;;;;;;;15.45;1.88;;;9.50;99.90;;;;;;4946478;28;20027;-84
2022/01/03 00:59:13;;;;;;;18.77;2.22;;;9.50;99.90;;;;;;4967808;28;20034;-85
2022/01/03 01:01:49;;;;;;;18.80;1.85;;;9.50;99.90;;;;;;4961196;28;20038;-85
2022/01/03 01:04:16;;;;;;;14.27;1.98;;;9.50;99.90;;;;;;4969351;28;20026;-85
2022/01/03 01:06:41;;;;;;;10.88;1.20;;;9.50;99.90;;;;;;4953372;28;20030;-85
2022/01/03 01:09:08;;;;;;;11.27;1.42;;;9.40;99.90;;;;;;4951706;28;20375;-84
2022/01/03 01:11:34;;;;;;;7.13;1.50;;;9.40;99.90;;;;;;4966160;28;20037;-85
2022/01/03 01:14:00;;;;;;;11.88;1.77;;;9.40;99.90;;;;;;4965069;28;20034;-85
2022/01/03 01:16:26;;;;;;;19.48;2.38;;;9.40;99.90;;;;;;4969425;28;20038;-84
2022/01/03 01:18:51;;;;;;;15.60;2.65;;;9.30;99.90;;;;;;4956763;28;20506;-85
2022/01/03 01:21:17;;;;;;;19.92;3.80;;;9.30;99.90;;;;;;4968286;28;20037;-85
2022/01/03 01:23:43;;;;;;;12.38;1.65;;;9.30;99.90;;;;;;4956564;28;20523;-85
2022/01/03 01:28:53;;;;;;;13.07;1.70;;;9.30;99.90;;;;;;4971506;28;20045;-84
2022/01/03 01:31:23;;;;;;;10.80;1.92;;;9.30;99.90;;;;;;4968341;28;20027;-85
2022/01/03 01:33:54;;;;;;;15.32;1.80;;;9.20;99.90;;;;;;4950684;28;20765;-85
2022/01/03 01:36:22;;;;;;;12.35;1.85;;;9.30;99.90;;;;;;4968807;28;20507;-85
2022/01/03 01:38:49;;;;;;;9.93;2.30;;;9.30;99.90;;;;;;4964836;28;20039;-85
2022/01/03 01:41:16;;;;;;;10.35;1.63;;;9.30;99.90;;;;;;4956903;28;20030;-85
2022/01/03 01:43:43;;;;;;;16.85;2.05;;;9.30;99.90;;;;;;4971363;28;20026;-85
2022/01/03 01:46:10;;;;;;;7.93;2.53;;;9.30;99.90;;;;;;4967777;28;20038;-85
2022/01/03 01:48:36;;;;;;;11.45;1.92;;;9.20;99.90;;;;;;4955437;28;20041;-85
2022/01/03 01:51:03;;;;;;;9.98;2.33;;;9.30;99.90;;;;;;4966339;28;20038;-85
2022/01/03 01:53:29;;;;;;;11.52;2.13;;;9.20;99.90;;;;;;4950112;28;20058;-85
2022/01/03 01:55:57;;;;;;;12.73;2.35;;;9.20;99.90;;;;;;4957393;28;20588;-84
2022/01/03 01:58:29;;;;;;;22.80;5.18;;;9.20;99.90;;;;;;4967781;28;20034;-85
2022/01/03 02:01:00;;;;;;;7.28;1.95;;;9.10;99.90;;;;;;4967758;28;20507;-85
2022/01/03 02:03:29;;;;;;;21.48;4.72;;;9.20;99.90;;;;;;4969755;28;20103;-84
2022/01/03 02:06:22;;;;;;;12.05;1.75;;;9.30;99.90;;;;;;4969143;28;20053;-84
2022/01/03 02:09:08;;;;;;;5.90;1.17;;;9.20;99.90;;;;;;4972923;28;20064;-85
2022/01/03 02:11:56;;;;;;;5.75;1.88;;;9.20;99.90;;;;;;4985285;28;20121;-85
2022/01/03 02:14:23;;;;;;;16.52;2.08;;;9.20;99.90;;;;;;4945144;28;20403;-85
2022/01/03 02:16:49;;;;;;;8.85;1.67;;;9.20;99.90;;;;;;4961966;28;20513;-84
2022/01/03 02:19:15;;;;;;;15.18;2.70;;;9.20;99.90;;;;;;4947871;28;20111;-85
2022/01/03 02:21:41;;;;;;;14.43;3.05;;;9.20;99.90;;;;;;4949860;28;20049;-85
2022/01/03 02:24:06;;;;;;;13.25;2.08;;;9.20;99.90;;;;;;4950424;28;20038;-85
2022/01/03 02:26:32;;;;;;;17.13;2.80;;;9.20;99.90;;;;;;4950585;28;20027;-85
2022/01/03 02:28:58;;;;;;;14.48;2.45;;;9.20;99.90;;;;;;4951710;28;20031;-84
2022/01/03 02:31:23;;;;;;;18.50;1.92;;;9.20;99.90;;;;;;4964021;28;20523;-84
2022/01/03 02:33:49;;;;;;;21.95;3.03;;;9.30;99.90;;;;;;4963804;28;20093;-84
2022/01/03 02:36:16;;;;;;;15.55;2.88;;;9.30;99.90;;;;;;4954868;28;20034;-84
2022/01/03 02:38:42;;;;;;;13.07;2.13;;;9.20;99.90;;;;;;4964488;28;20086;-84
2022/01/03 02:41:07;;;;;;;10.48;2.95;;;9.20;99.90;;;;;;4982246;28;20498;-84
2022/01/03 02:43:33;;;;;;;12.98;2.97;;;9.20;99.90;;;;;;4951327;28;20093;-84
2022/01/03 02:45:58;;;;;;;12.05;1.52;;;9.20;99.90;;;;;;4948247;28;20046;-84
2022/01/03 02:48:26;;;;;;;14.05;2.25;;;9.20;99.90;;;;;;4948117;28;20895;-84
2022/01/03 02:50:52;;;;;;;14.98;1.77;;;9.30;99.90;;;;;;4946875;28;20050;-84
2022/01/03 02:53:17;;;;;;;12.63;2.42;;;9.30;99.90;;;;;;4964436;28;20031;-84
2022/01/03 02:55:43;;;;;;;11.10;1.80;;;9.20;99.90;;;;;;4952879;28;20030;-84
2022/01/03 02:58:08;;;;;;;11.90;2.28;;;9.30;99.90;;;;;;4948871;28;20061;-84
2022/01/03 03:00:51;;;;;;;14.60;1.92;;;9.30;99.90;;;;;;4968512;28;20060;-84
2022/01/03 03:03:18;;;;;;;10.43;1.70;;;9.20;99.90;;;;;;4966168;28;20035;-84
2022/01/03 03:05:44;;;;;;;23.08;2.17;;;9.30;99.90;;;;;;4951896;28;20050;-84
2022/01/03 03:08:10;;;;;;;19.20;2.60;;;9.20;99.90;;;;;;4965014;28;20125;-85
2022/01/03 03:10:35;;;;;;;9.77;1.23;;;9.20;99.90;;;;;;4953590;28;20085;-85
2022/01/03 03:13:01;;;;;;;8.93;1.08;;;9.20;99.90;;;;;;4951663;28;20022;-85
2022/01/03 03:15:26;;;;;;;8.70;1.45;;;9.20;99.90;;;;;;4946596;28;20039;-84
2022/01/03 03:17:52;;;;;;;4.20;1.13;;;9.30;99.90;;;;;;4950072;28;20059;-85
2022/01/03 03:20:22;;;;;;;6.15;1.35;;;9.20;99.90;;;;;;4975485;28;20080;-85
2022/01/03 03:22:49;;;;;;;9.30;1.45;;;9.20;99.90;;;;;;4954146;28;20038;-85
2022/01/03 03:25:22;;;;;;;5.20;1.25;;;9.10;99.90;;;;;;4962059;28;20030;-86
2022/01/03 03:27:50;;;;;;;10.25;2.05;;;9.10;99.90;;;;;;4951000;28;20023;-85
2022/01/03 03:30:20;;;;;;;11.48;1.42;;;9.10;99.90;;;;;;4949339;28;20488;-85
2022/01/03 03:32:46;;;;;;;7.45;2.53;;;9.10;99.90;;;;;;4961784;28;20037;-85
2022/01/03 03:35:12;;;;;;;9.23;1.80;;;9.10;99.90;;;;;;4946991;28;20061;-85
2022/01/03 03:37:38;;;;;;;11.82;2.22;;;9.10;99.90;;;;;;4964317;28;20123;-85
2022/01/03 03:40:05;;;;;;;16.25;2.65;;;9.10;99.90;;;;;;4962815;28;20031;-84
2022/01/03 03:42:30;;;;;;;8.70;2.08;;;9.10;99.90;;;;;;4953685;28;20129;-85
2022/01/03 03:44:56;;;;;;;12.52;2.20;;;9.10;99.90;;;;;;4951923;28;20548;-84
2022/01/03 03:47:21;;;;;;;10.98;1.55;;;9.00;99.90;;;;;;4945271;28;20111;-85
2022/01/03 03:49:47;;;;;;;11.13;1.33;;;9.10;99.90;;;;;;4984174;28;20520;-85
2022/01/03 03:52:13;;;;;;;12.77;1.55;;;9.10;99.90;;;;;;4952154;28;20089;-85
2022/01/03 03:54:38;;;;;;;10.98;1.63;;;9.10;99.90;;;;;;4954404;28;20049;-85
2022/01/03 03:57:04;;;;;;;18.65;1.80;;;9.10;99.90;;;;;;4949035;28;20026;-84
2022/01/03 03:59:30;;;;;;;11.88;2.13;;;9.10;99.90;;;;;;4952278;28;20033;-85
2022/01/03 04:01:55;;;;;;;28.33;2.70;;;9.10;99.90;;;;;;4946642;28;20510;-85
2022/01/03 04:04:21;;;;;;;10.18;1.63;;;9.20;99.90;;;;;;4963134;28;20809;-85
2022/01/03 04:06:47;;;;;;;13.13;1.80;;;9.20;99.90;;;;;;4946992;28;20042;-85
2022/01/03 04:09:12;;;;;;;11.30;1.83;;;9.10;99.90;;;;;;4944986;28;20105;-84
2022/01/03 04:11:38;;;;;;;11.85;2.28;;;9.10;99.90;;;;;;4945560;28;20344;-85
2022/01/03 04:14:03;;;;;;;13.63;2.42;;;9.20;99.90;;;;;;4971935;28;20109;-85
2022/01/03 04:16:29;;;;;;;10.25;1.80;;;9.20;99.90;;;;;;4948251;28;20030;-84
2022/01/03 04:18:54;;;;;;;12.15;1.35;;;9.20;99.90;;;;;;4980234;28;20351;-84
2022/01/03 04:21:20;;;;;;;10.25;1.70;;;9.20;99.90;;;;;;4962783;28;20046;-85
2022/01/03 04:23:46;;;;;;;7.47;2.13;;;9.20;99.90;;;;;;4952723;28;20501;-84
2022/01/03 04:26:11;;;;;;;9.98;1.50;;;9.20;99.90;;;;;;4944480;28;20403;-84
2022/01/03 04:28:38;;;;;;;9.40;1.08;;;9.20;99.90;;;;;;4966824;28;20552;-85
2022/01/03 04:31:03;;;;;;;9.73;1.40;;;9.20;99.90;;;;;;4949483;28;20479;-85
2022/01/03 04:33:29;;;;;;;15.10;2.10;;;9.30;99.90;;;;;;4960499;28;20074;-84
2022/01/03 04:35:54;;;;;;;17.73;1.52;;;9.20;99.90;;;;;;4946646;28;20031;-84
2022/01/03 04:38:20;;;;;;;6.95;1.30;;;9.20;99.90;;;;;;4962081;28;20595;-85
2022/01/03 04:40:46;;;;;;;17.77;2.10;;;9.20;99.90;;;;;;4948270;28;20804;-84
2022/01/03 04:43:11;;;;;;;3.35;1.02;;;9.10;99.90;;;;;;4948722;28;20038;-84
2022/01/03 04:45:37;;;;;;;8.10;1.40;;;9.00;99.90;;;;;;4945632;28;20376;-85
2022/01/03 04:48:02;;;;;;;14.85;2.20;;;9.00;99.90;;;;;;4960531;28;20506;-84
2022/01/03 04:50:28;;;;;;;13.25;1.65;;;9.00;99.90;;;;;;4949720;28;20031;-84
2022/01/03 04:52:53;;;;;;;6.13;2.13;;;9.00;99.90;;;;;;4945530;28;20015;-85
2022/01/03 04:55:20;;;;;;;10.80;1.33;;;9.00;99.90;;;;;;4946627;28;20026;-84
2022/01/03 04:57:46;;;;;;;17.25;2.03;;;9.10;99.90;;;;;;4951186;28;20030;-84
2022/01/03 05:00:12;;;;;;;13.80;1.20;;;9.00;99.90;;;;;;4950512;28;20069;-84
2022/01/03 05:02:38;;;;;;;9.82;1.50;;;9.00;99.90;;;;;;4943935;28;20054;-84
2022/01/03 05:05:04;;;;;;;18.17;2.35;;;9.00;99.90;;;;;;4958398;28;20027;-85
2022/01/03 05:07:30;;;;;;;5.25;1.25;;;9.10;99.90;;;;;;4977320;28;20034;-84
2022/01/03 05:09:55;;;;;;;11.77;2.80;;;9.00;99.90;;;;;;4961529;28;20034;-84
2022/01/03 05:12:21;;;;;;;22.67;2.40;;;8.90;99.90;;;;;;4974244;28;20376;-85
2022/01/03 05:14:46;;;;;;;9.55;1.88;;;9.00;99.90;;;;;;4945752;28;20479;-84
2022/01/03 05:17:12;;;;;;;6.13;2.10;;;9.00;99.90;;;;;;4949554;28;20392;-84
2022/01/03 05:19:38;;;;;;;8.07;1.67;;;8.90;99.90;;;;;;4962598;28;20046;-84
2022/01/03 05:22:04;;;;;;;17.38;1.88;;;8.90;99.90;;;;;;4959076;28;20145;-84
2022/01/03 05:24:29;;;;;;;15.10;1.48;;;8.90;99.90;;;;;;4964085;28;20062;-84
2022/01/03 05:26:56;;;;;;;10.98;1.50;;;8.90;99.90;;;;;;4950645;28;20700;-84
2022/01/03 05:29:22;;;;;;;10.60;2.10;;;8.90;99.90;;;;;;4947328;28;20042;-84
2022/01/03 05:31:48;;;;;;;5.85;1.52;;;8.90;99.90;;;;;;4944546;28;20030;-84
2022/01/03 05:34:13;;;;;;;5.97;1.33;;;8.90;99.90;;;;;;4962083;28;20074;-84
2022/01/03 05:36:39;;;;;;;7.15;1.40;;;8.90;99.90;;;;;;4945090;28;20030;-84
2022/01/03 05:39:04;;;;;;;17.30;1.65;;;9.00;99.90;;;;;;4944502;28;20030;-84
2022/01/03 05:41:32;;;;;;;13.50;1.77;;;8.90;99.90;;;;;;4961386;28;20382;-84
2022/01/03 05:43:58;;;;;;;16.15;1.98;;;8.90;99.90;;;;;;4946031;28;20034;-84
2022/01/03 05:46:23;;;;;;;12.38;2.88;;;8.90;99.90;;;;;;4946445;28;20030;-84
2022/01/03 05:48:49;;;;;;;6.70;1.15;;;8.90;99.90;;;;;;4951963;28;20052;-84
2022/01/03 05:51:14;;;;;;;15.30;2.10;;;9.00;99.90;;;;;;4963205;28;20034;-84
2022/01/03 05:53:40;;;;;;;9.07;1.08;;;9.00;99.90;;;;;;4962326;28;20829;-84
2022/01/03 05:56:06;;;;;;;11.00;1.52;;;9.00;99.90;;;;;;4947949;28;20787;-84
2022/01/03 05:58:31;;;;;;;8.32;1.13;;;9.10;99.90;;;;;;4950934;28;20034;-84
2022/01/03 06:00:57;;;;;;;5.88;0.73;;;9.10;99.90;;;;;;4946679;28;20038;-84
2022/01/03 06:03:23;;;;;;;6.38;1.25;;;9.00;99.90;;;;;;4952173;28;20038;-84
2022/01/03 06:08:21;;;;;;;7.82;1.33;;;9.00;99.90;;;;;;4962501;28;20414;-85
2022/01/03 06:10:46;;;;;;;8.68;0.93;;;9.00;99.90;;;;;;4953158;28;20034;-84
2022/01/03 06:13:12;;;;;;;11.82;1.85;;;9.00;99.90;;;;;;4955099;28;20360;-84
2022/01/03 06:15:40;;;;;;;12.75;1.38;;;9.00;99.90;;;;;;4950839;28;20030;-84
2022/01/03 06:18:10;;;;;;;8.77;2.35;;;9.10;99.90;;;;;;4960157;28;20042;-84
2022/01/03 06:20:40;;;;;;;14.85;1.70;;;9.00;99.90;;;;;;4980138;28;20031;-84
2022/01/03 06:23:06;;;;;;;14.45;3.28;;;9.10;99.90;;;;;;4966345;28;20035;-84
2022/01/03 06:25:31;;;;;;;10.45;1.52;;;9.10;99.90;;;;;;4953940;28;20113;-84
2022/01/03 06:27:57;;;;;;;12.25;1.33;;;9.00;99.90;;;;;;4965553;28;20548;-84
2022/01/03 06:30:23;;;;;;;20.17;1.55;;;9.10;99.90;;;;;;4979317;28;20022;-84
2022/01/03 06:32:48;;;;;;;3.22;0.88;;;9.10;99.90;;;;;;4952884;28;20034;-85
2022/01/03 06:35:14;;;;;;;6.57;1.17;;;9.10;99.90;;;;;;4948971;28;20062;-85
2022/01/03 06:37:39;;;;;;;15.07;1.65;;;9.10;99.90;;;;;;4966907;28;20058;-86
2022/01/03 06:40:06;;;;;;;8.60;0.98;;;9.00;99.90;;;;;;4946918;28;20057;-85
2022/01/03 06:42:32;;;;;;;11.18;1.92;;;9.10;99.90;;;;;;4946844;28;20038;-85
2022/01/03 06:44:57;;;;;;;11.75;2.28;;;9.10;99.90;;;;;;4961648;28;20035;-85
2022/01/03 06:47:23;;;;;;;12.38;2.20;;;9.10;99.90;;;;;;4952650;28;20037;-86
2022/01/03 06:49:49;;;;;;;13.65;1.73;;;9.10;99.90;;;;;;4952144;28;20042;-85
2022/01/03 06:52:14;;;;;;;8.23;1.60;;;9.10;99.90;;;;;;4954085;28;20035;-85
2022/01/03 06:54:40;;;;;;;22.00;2.60;;;9.10;99.90;;;;;;4963846;28;20044;-86
2022/01/03 06:57:06;;;;;;;11.80;1.95;;;9.10;99.90;;;;;;4947994;28;20109;-84
2022/01/03 06:59:31;;;;;;;12.13;1.63;;;9.10;99.90;;;;;;4948412;28;20038;-85
2022/01/03 07:01:57;;;;;;;10.93;1.38;;;9.10;99.90;;;;;;4961932;28;20034;-84
2022/01/03 07:04:22;;;;;;;14.18;3.03;;;9.10;99.90;;;;;;4947987;28;20034;-85
2022/01/03 07:06:48;;;;;;;5.97;1.63;;;9.00;99.90;;;;;;4950119;28;20042;-84
2022/01/03 07:09:13;;;;;;;20.00;2.40;;;9.10;99.90;;;;;;4960830;28;20500;-84
2022/01/03 07:11:39;;;;;;;16.38;1.70;;;9.10;99.90;;;;;;4950976;28;20038;-84
2022/01/03 07:19:52;;;;;;;16.98;2.08;;;9.20;99.90;;;;;;4965581;28;20085;-84
2022/01/03 07:22:18;;;;;;;9.35;1.77;;;9.20;99.90;;;;;;4953936;28;20422;-85
2022/01/03 07:24:43;;;;;;;7.40;1.00;;;9.20;99.90;;;;;;4948318;28;20038;-84
2022/01/03 07:27:10;;;;;;;5.93;1.23;;;9.10;99.90;;;;;;4967640;28;20041;-84
2022/01/03 07:29:36;;;;;;;6.35;1.80;;;9.20;99.90;;;;;;4953422;28;20122;-84
2022/01/03 07:32:02;;;;;;;11.45;2.63;;;9.20;99.90;;;;;;4947743;28;20118;-85
2022/01/03 07:34:27;;;;;;;14.32;0.95;;;9.10;99.90;;;;;;4958945;28;20093;-84
2022/01/03 07:36:53;;;;;;;7.53;1.50;;;9.00;99.90;;;;;;4953942;28;20022;-84
2022/01/03 07:39:19;;;;;;;13.50;2.30;;;9.10;99.90;;;;;;4939204;28;20377;-83
2022/01/03 07:41:44;;;;;;;15.32;2.45;;;9.20;99.90;;;;;;4946942;28;20066;-84
2022/01/03 07:44:10;;;;;;;15.48;1.70;;;9.00;99.90;;;;;;4951247;28;20113;-84
2022/01/03 07:46:35;;;;;;;10.40;1.70;;;9.20;99.90;;;;;;4961613;28;20046;-84
2022/01/03 07:49:01;;;;;;;7.97;1.65;;;9.20;99.90;;;;;;4952744;28;20458;-84
2022/01/03 07:51:27;;;;;;;14.95;2.80;;;9.20;99.90;;;;;;4959651;28;20058;-84
2022/01/03 07:53:52;;;;;;;10.60;2.22;;;9.20;99.90;;;;;;4959675;28;20058;-84
2022/01/03 07:56:18;;;;;;;12.02;1.92;;;9.30;99.90;;;;;;4947047;28;20030;-84
2022/01/03 07:58:44;;;;;;;9.40;1.83;;;9.20;99.90;;;;;;4965514;28;20052;-84
2022/01/03 08:01:10;;;;;;;13.00;1.15;;;9.30;99.90;;;;;;4964526;28;20038;-84
2022/01/03 08:03:36;;;;;;;10.73;2.17;;;9.30;99.90;;;;;;4951760;28;20038;-84
2022/01/03 08:06:02;;;;;;;7.20;1.55;;;9.30;99.90;;;;;;4944616;28;20042;-85
2022/01/03 08:08:27;;;;;;;12.45;2.65;;;9.30;99.90;;;;;;4975765;28;20093;-85
2022/01/03 08:10:53;;;;;;;10.45;1.70;;;9.30;99.90;;;;;;4946299;28;20042;-84
2022/01/03 08:13:19;;;;;;;7.70;1.15;;;9.20;99.90;;;;;;4946205;28;20090;-85
2022/01/03 08:15:44;;;;;;;3.90;1.00;;;9.20;99.90;;;;;;4969021;28;20123;-85
2022/01/03 08:18:10;;;;;;;14.48;2.83;;;9.20;99.90;;;;;;4944428;28;20031;-85
2022/01/03 08:20:35;;;;;;;18.23;2.35;;;9.20;99.90;;;;;;4960508;28;20072;-85
2022/01/03 08:23:01;;;;;;;4.03;0.57;;;9.20;99.90;;;;;;4958401;28;20031;-85
2022/01/03 08:25:27;;;;;;;12.20;2.17;;;9.30;99.90;;;;;;4948168;28;20034;-85
2022/01/03 08:27:52;;;;;;;8.68;1.83;;;9.20;99.90;;;;;;4943603;28;20033;-85
2022/01/03 08:30:18;;;;;;;10.63;2.22;;;9.20;99.90;;;;;;4946369;28;20058;-85
2022/01/03 08:32:44;;;;;;;8.55;2.97;;;9.30;99.90;;;;;;4952944;28;20725;-85
2022/01/03 08:35:09;;;;;;;5.18;0.95;;;9.30;99.90;;;;;;4945979;28;20089;-85
2022/01/03 08:37:35;;;;;;;2.65;1.23;;;9.20;99.90;;;;;;4964828;28;20027;-85
2022/01/03 08:40:04;;;;;;;9.45;1.63;;;9.10;99.90;;;;;;4978923;28;20066;-85
2022/01/03 08:42:30;;;;;;;6.63;1.85;;;9.10;99.90;;;;;;4965798;28;20038;-85
2022/01/03 08:44:56;;;;;;;9.57;1.63;;;9.20;99.90;;;;;;4946791;28;20058;-85
2022/01/03 08:47:22;;;;;;;19.73;2.50;;;9.20;99.90;;;;;;4951139;28;20149;-85
2022/01/03 08:49:49;;;;;;;8.55;1.70;;;9.20;99.90;;;;;;4948458;28;20367;-85
2022/01/03 08:52:15;;;;;;;11.38;1.70;;;9.20;99.90;;;;;;4951937;28;20133;-85
2022/01/03 08:54:40;;;;;;;8.65;1.25;;;9.40;99.90;;;;;;4947631;28;20027;-85
2022/01/03 08:57:06;;;;;;;10.10;1.83;;;9.20;99.90;;;;;;4979957;28;20447;-85
2022/01/03 08:59:32;;;;;;;14.88;2.40;;;9.20;99.90;;;;;;4948934;28;20101;-85
2022/01/03 09:01:57;;;;;;;14.35;1.83;;;9.30;99.90;;;;;;4962896;28;20068;-85
2022/01/03 09:04:23;;;;;;;12.77;2.15;;;9.40;99.90;;;;;;4950196;28;20038;-85
2022/01/03 09:06:50;;;;;;;14.32;2.35;;;9.40;99.90;;;;;;4942303;28;20062;-85
2022/01/03 09:09:16;;;;;;;9.88;1.77;;;9.30;99.90;;;;;;4964473;28;20074;-85
2022/01/03 09:11:41;;;;;;;16.17;2.28;;;9.30;99.90;;;;;;4946060;28;20782;-85
2022/01/03 09:14:07;;;;;;;5.15;1.38;;;9.30;99.90;;;;;;4950426;28;20065;-85
2022/01/03 09:16:36;;;;;;;14.07;2.55;;;9.30;99.90;;;;;;4978607;28;20045;-85
2022/01/03 09:19:01;;;;;;;12.25;1.77;;;9.30;99.90;;;;;;4964766;28;20556;-85
2022/01/03 09:21:28;;;;;;;16.65;2.53;;;9.30;99.90;;;;;;4950394;28;20038;-85
2022/01/03 09:24:15;;;;;;;13.38;2.13;;;9.30;99.90;;;;;;4948735;28;20050;-85
2022/01/03 09:29:24;;;;;;;12.88;1.90;;;9.40;99.90;;;;;;4967720;28;20341;-85
2022/01/03 09:31:49;;;;;;;13.30;2.13;;;9.40;99.90;;;;;;4949111;28;20479;-85
2022/01/03 09:34:15;;;;;;;12.95;2.35;;;9.50;99.90;;;;;;4961822;28;20038;-85
2022/01/03 09:36:41;;;;;;;10.43;3.85;;;9.50;99.90;;;;;;4969965;28;20045;-84
2022/01/03 09:39:07;;;;;;;14.43;1.92;;;9.60;99.90;;;;;;4962387;28;20042;-84
2022/01/03 09:41:33;;;;;;;16.08;1.92;;;9.60;99.90;;;;;;4967445;28;20046;-85
2022/01/03 09:44:04;;;;;;;10.07;2.05;;;9.60;99.90;;;;;;4948941;28;20030;-85
2022/01/03 09:46:35;;;;;;;8.57;2.47;;;9.70;99.90;;;;;;4966846;28;20042;-85
2022/01/03 09:49:00;;;;;;;13.55;1.77;;;9.70;99.90;;;;;;4968651;28;20042;-85
2022/01/03 09:51:28;;;;;;;13.35;1.77;;;9.80;99.90;;;;;;4959915;28;20563;-84
2022/01/03 09:53:56;;;;;;;8.23;2.50;;;9.90;99.90;;;;;;4966184;28;20034;-85
2022/01/03 09:56:22;;;;;;;9.50;1.67;;;9.90;99.90;;;;;;4966662;28;20051;-85
2022/01/03 09:58:48;;;;;;;9.77;1.77;;;10.10;99.90;;;;;;4964144;28;20084;-85
2022/01/03 10:01:13;;;;;;;14.13;2.97;;;10.20;99.90;;;;;;4951875;28;20388;-85
2022/01/03 10:03:41;;;;;;;7.20;1.38;;;10.20;99.90;;;;;;4950363;28;20037;-85
2022/01/03 10:06:07;;;;;;;7.15;1.77;;;10.20;99.90;;;;;;4959690;28;20093;-85
2022/01/03 10:08:33;;;;;;;10.50;1.80;;;10.30;99.90;;;;;;4950730;28;20035;-85
2022/01/03 10:10:58;;;;;;;15.75;2.65;;;10.30;99.90;;;;;;4952732;28;20482;-85
2022/01/03 10:13:24;;;;;;;14.93;2.63;;;10.30;99.90;;;;;;4964851;28;20509;-85
2022/01/03 10:15:50;;;;;;;17.25;2.70;;;10.30;99.90;;;;;;4952688;28;20157;-85
2022/01/03 10:18:19;;;;;;;4.85;1.33;;;10.30;99.90;;;;;;4947920;28;20042;-85
2022/01/03 10:20:45;;;;;;;9.50;1.70;;;10.30;99.90;;;;;;4967632;28;20041;-85
2022/01/03 10:23:14;;;;;;;9.90;2.13;;;10.20;99.90;;;;;;4960514;28;20150;-85
2022/01/03 10:25:39;;;;;;;5.63;1.85;;;10.30;99.90;;;;;;4987873;28;20033;-85
2022/01/03 10:28:06;;;;;;;8.27;1.77;;;10.30;99.90;;;;;;4952134;28;20142;-85
2022/01/03 10:30:41;;;;;;;8.88;1.92;;;10.30;99.90;;;;;;4966313;28;20031;-85
2022/01/03 10:33:16;;;;;;;10.43;1.20;;;10.30;99.90;;;;;;4962290;28;20323;-85
2022/01/03 10:35:43;;;;;;;14.95;2.03;;;10.30;99.90;;;;;;4964845;28;20056;-84
2022/01/03 10:38:09;;;;;;;10.63;1.73;;;10.40;99.90;;;;;;4965501;28;20037;-85
2022/01/03 10:40:35;;;;;;;11.60;2.20;;;10.40;99.90;;;;;;4954970;28;20120;-85
2022/01/03 10:43:16;;;;;;;10.77;1.73;;;10.50;99.90;;;;;;4950249;28;20026;-85
2022/01/03 10:45:42;;;;;;;11.98;1.98;;;10.60;99.90;;;;;;4943902;28;20026;-85
2022/01/03 10:48:32;;;;;;;6.30;1.85;;;10.60;99.90;;;;;;4951431;28;20034;-85
2022/01/03 10:50:58;;;;;;;12.00;1.83;;;10.60;99.90;;;;;;4969591;28;20566;-85
2022/01/03 10:53:40;;;;;;;13.93;2.33;;;10.70;99.90;;;;;;4964380;28;20042;-86
2022/01/03 10:56:28;;;;;;;12.60;2.22;;;10.70;99.90;;;;;;4963328;28;20457;-85
2022/01/03 10:58:55;;;;;;;9.32;2.38;;;10.80;99.90;;;;;;4986375;28;20026;-85
2022/01/03 11:01:26;;;;;;;7.97;1.40;;;10.80;99.90;;;;;;4964722;28;20042;-85
2022/01/03 11:03:54;;;;;;;13.65;1.77;;;10.80;99.90;;;;;;4966106;28;20031;-86
2022/01/03 11:06:25;;;;;;;19.00;2.15;;;10.80;99.90;;;;;;4966277;28;20039;-85
2022/01/03 11:11:40;;;;;;;3.78;0.73;;;10.90;99.90;;;;;;4963522;28;20069;-85
2022/01/03 11:14:06;;;;;;;5.75;1.20;;;10.90;99.90;;;;;;4948984;28;20037;-86
2022/01/03 11:16:39;;;;;;;9.68;2.22;;;10.90;99.90;;;;;;4981040;28;20537;-85
2022/01/03 11:19:12;;;;;;;16.23;2.30;;;10.90;99.90;;;;;;4953310;28;20037;-86
2022/01/03 11:21:44;;;;;;;12.20;1.98;;;10.90;99.90;;;;;;4962776;28;20149;-86
2022/01/03 11:24:12;;;;;;;10.88;1.60;;;10.90;99.90;;;;;;4948523;28;20065;-86
2022/01/03 11:26:46;;;;;;;15.32;1.95;;;11.00;99.90;;;;;;4960726;28;20149;-86
2022/01/03 11:29:12;;;;;;;21.23;2.20;;;11.00;99.90;;;;;;4955284;28;20034;-85
2022/01/03 11:31:38;;;;;;;15.13;2.47;;;11.00;99.90;;;;;;4965040;28;20542;-86
2022/01/03 11:34:04;;;;;;;8.02;2.13;;;11.00;99.90;;;;;;4946265;28;20118;-86
2022/01/03 11:36:30;;;;;;;16.45;2.63;;;11.00;99.90;;;;;;4947815;28;20042;-86
2022/01/03 11:38:56;;;;;;;15.95;2.83;;;11.00;99.90;;;;;;4946952;28;20054;-84
2022/01/03 11:41:22;;;;;;;5.75;1.52;;;11.10;99.90;;;;;;4949469;28;20048;-85
2022/01/03 11:43:49;;;;;;;15.48;2.92;;;11.10;99.90;;;;;;4947446;28;20034;-85
2022/01/03 11:46:14;;;;;;;13.80;3.05;;;11.10;99.90;;;;;;4940049;28;20063;-85
2022/01/03 11:48:41;;;;;;;9.32;1.50;;;11.00;99.90;;;;;;4965172;28;20494;-85
2022/01/03 11:51:10;;;;;;;10.82;2.42;;;11.10;99.90;;;;;;4958532;28;20043;-85
2022/01/03 11:53:48;;;;;;;9.73;1.52;;;11.10;99.90;;;;;;4970852;28;20062;-85
2022/01/03 11:56:21;;;;;;;13.52;2.45;;;11.10;99.90;;;;;;4960408;28;20391;-85
2022/01/03 11:59:17;;;;;;;5.10;1.33;;;11.10;99.90;;;;;;4950848;28;20464;-84
2022/01/03 12:04:33;;;;;;;7.95;1.58;;;11.10;99.90;;;;;;4975196;28;20049;-84
2022/01/03 12:07:08;;;;;;;11.00;2.35;;;11.10;99.90;;;;;;4935736;28;20034;-84
2022/01/03 12:09:38;;;;;;;14.40;2.70;;;10.90;99.90;;;;;;4927690;28;20396;-84
2022/01/03 12:12:05;;;;;;;20.25;2.75;;;11.10;99.90;;;;;;4934859;28;20034;-84
2022/01/03 12:14:47;;;;;;;11.68;1.38;;;11.10;99.90;;;;;;4951288;28;20030;-84
2022/01/03 12:17:14;;;;;;;5.38;1.40;;;11.10;99.90;;;;;;4946864;28;20117;-84
2022/01/03 12:19:46;;;;;;;11.68;1.85;;;11.20;99.90;;;;;;4956907;28;20413;-84
2022/01/03 12:22:19;;;;;;;11.25;1.65;;;11.20;99.90;;;;;;4949330;28;20050;-84
2022/01/03 12:24:44;;;;;;;19.27;3.55;;;11.20;99.90;;;;;;4977462;28;20031;-84
2022/01/03 12:27:10;;;;;;;16.88;2.58;;;11.30;99.90;;;;;;4977619;28;20041;-84
2022/01/03 12:29:56;;;;;;;8.65;1.40;;;11.20;99.90;;;;;;4977942;28;20549;-84
2022/01/03 12:32:40;;;;;;;10.18;1.48;;;11.20;99.90;;;;;;4981947;28;20205;-84
2022/01/03 12:35:19;;;;;;;6.03;1.60;;;11.10;99.90;;;;;;4948896;28;20038;-84
2022/01/03 12:38:02;;;;;;;5.38;1.23;;;11.10;99.90;;;;;;4633186;28;10000546;-84
2022/01/03 12:40:31;;;;;;;9.98;1.95;;;11.10;99.90;;;;;;4630049;28;10000030;-84
2022/01/03 12:42:59;;;;;;;13.00;1.58;;;11.10;99.90;;;;;;4965463;28;20022;-84
2022/01/03 12:45:32;;;;;;;9.48;1.33;;;11.00;99.90;;;;;;4962253;28;20034;-84
2022/01/03 12:50:39;;;;;;;7.25;2.05;;;11.00;99.90;;;;;;4974606;28;20030;-84
2022/01/03 12:53:05;;;;;;;6.82;0.82;;;10.90;99.90;;;;;;4961373;28;20402;-85
2022/01/03 12:55:37;;;;;;;9.30;1.67;;;10.80;99.90;;;;;;4960777;28;20030;-85
2022/01/03 12:58:16;;;;;;;15.25;2.35;;;10.70;99.90;;;;;;4977460;28;20034;-86
2022/01/03 13:00:58;;;;;;;11.88;1.77;;;10.50;99.90;;;;;;4980869;28;20034;-86
2022/01/03 13:03:52;;;;;;;8.38;1.30;;;10.40;99.90;;;;;;4962205;28;20596;-86
2022/01/03 13:06:34;;;;;;;6.35;0.93;;;10.40;99.90;;;;;;4961034;28;20662;-85
2022/01/03 13:09:10;;;;;;;7.30;1.10;;;10.20;99.90;;;;;;4948043;28;20101;-86
2022/01/03 13:11:36;;;;;;;;;;;10.20;99.90;;;;;;4959788;28;20037;-86